Time;durP1;ratioP1;P1;durP2;ratioP2;P2;SDS_P1;SDS_P2;PMS_P1;PMS_P2;Temp;Humidity;BMP_temperature;BMP_pressure;BME280_temperature;BME280_humidity;BME280_pressure;Samples;Min_cycle;Max_cycle;Signal;HPM_P1;HPM_P2
2021/11/14 00:00:50;;;;;;;5.53;2.45;;;15.90;71.60;;;;;;4946423;28;96105;-43
2021/11/14 00:03:22;;;;;;;3.25;2.15;;;15.90;71.70;;;;;;4948273;28;95503;-41
2021/11/14 00:05:54;;;;;;;2.63;1.90;;;15.90;71.60;;;;;;4942709;28;95995;-39
2021/11/14 00:08:24;;;;;;;5.05;2.13;;;15.90;71.70;;;;;;4940909;28;96123;-36
2021/11/14 00:11:01;;;;;;;4.75;2.85;;;15.90;71.60;;;;;;4950181;28;96032;-40
2021/11/14 00:13:32;;;;;;;3.05;2.03;;;15.90;71.60;;;;;;4949782;28;95818;-38
2021/11/14 00:16:03;;;;;;;4.65;2.50;;;15.90;71.70;;;;;;4949510;28;95775;-41
2021/11/14 00:18:35;;;;;;;2.97;2.03;;;15.90;71.70;;;;;;4949836;28;95855;-40
2021/11/14 00:21:07;;;;;;;4.05;2.53;;;15.90;71.60;;;;;;4949066;28;95752;-36
2021/11/14 00:23:37;;;;;;;4.03;2.40;;;15.90;71.60;;;;;;4948629;28;95889;-38
2021/11/14 00:26:09;;;;;;;3.25;1.90;;;15.90;71.60;;;;;;4948493;28;95885;-40
2021/11/14 00:28:43;;;;;;;4.00;1.80;;;15.90;71.60;;;;;;4950916;28;97287;-38
2021/11/14 00:31:17;;;;;;;5.18;2.28;;;15.90;71.60;;;;;;4947221;28;97488;-41
2021/11/14 00:33:50;;;;;;;5.03;2.50;;;15.90;71.50;;;;;;4948838;28;95946;-41
2021/11/14 00:36:24;;;;;;;6.20;3.08;;;15.90;71.80;;;;;;4948355;28;98173;-40
2021/11/14 00:38:56;;;;;;;4.75;2.50;;;15.90;72.10;;;;;;4946588;28;96020;-39
2021/11/14 00:41:29;;;;;;;4.45;2.30;;;16.00;72.00;;;;;;4960745;28;96004;-38
2021/11/14 00:44:00;;;;;;;4.18;2.47;;;16.10;71.90;;;;;;4962744;28;97168;-39
2021/11/14 00:46:30;;;;;;;7.13;2.92;;;16.20;72.20;;;;;;4949641;28;96028;-41
2021/11/14 00:49:00;;;;;;;3.90;2.30;;;16.30;72.30;;;;;;4950614;28;97328;-37
2021/11/14 00:51:30;;;;;;;4.68;2.50;;;16.40;72.30;;;;;;4950495;28;95951;-41
2021/11/14 00:54:03;;;;;;;3.40;2.30;;;16.40;72.30;;;;;;4949914;28;96158;-38
2021/11/14 00:56:35;;;;;;;9.23;2.67;;;16.50;72.10;;;;;;4948987;28;95848;-43
2021/11/14 00:59:07;;;;;;;5.90;2.50;;;16.50;71.90;;;;;;4947180;28;96435;-37
2021/11/14 01:01:39;;;;;;;3.92;2.40;;;16.50;71.80;;;;;;4948008;28;95956;-42
2021/11/14 01:04:10;;;;;;;5.75;3.15;;;16.50;71.90;;;;;;4948322;28;95429;-39
2021/11/14 01:06:40;;;;;;;8.45;3.45;;;16.50;72.10;;;;;;4932922;28;95403;-38
2021/11/14 01:09:10;;;;;;;5.30;3.30;;;16.40;72.30;;;;;;4939904;28;95967;-41
2021/11/14 01:11:40;;;;;;;5.47;2.95;;;16.40;72.40;;;;;;4944645;28;95642;-40
2021/11/14 01:14:12;;;;;;;5.73;3.53;;;16.40;72.40;;;;;;4944780;28;97530;-39
2021/11/14 01:16:43;;;;;;;4.25;2.92;;;16.40;72.60;;;;;;4945108;28;96490;-43
2021/11/14 01:19:13;;;;;;;;;;;16.40;72.70;;;;;;4945845;28;96879;-41
2021/11/14 01:21:46;;;;;;;5.80;3.53;;;16.30;72.80;;;;;;4946282;28;96438;-39
2021/11/14 01:24:17;;;;;;;5.57;3.28;;;16.30;72.80;;;;;;4946030;28;95898;-40
2021/11/14 01:26:48;;;;;;;8.32;3.95;;;16.30;73.00;;;;;;4960140;28;96214;-42
2021/11/14 01:29:19;;;;;;;4.85;2.85;;;16.30;73.10;;;;;;4943555;28;96801;-40
2021/11/14 01:31:51;;;;;;;4.45;2.70;;;16.30;73.00;;;;;;4943202;28;96193;-44
2021/11/14 01:34:23;;;;;;;3.97;2.70;;;16.30;73.10;;;;;;4946480;28;96053;-44
2021/11/14 01:36:54;;;;;;;4.47;3.33;;;16.30;73.20;;;;;;4946675;28;95960;-41
2021/11/14 01:39:25;;;;;;;5.38;3.75;;;16.20;73.30;;;;;;4944675;28;95864;-41
2021/11/14 01:41:56;;;;;;;4.80;3.20;;;16.20;73.30;;;;;;4943951;28;96079;-37
2021/11/14 01:44:26;;;;;;;4.70;2.53;;;16.20;73.40;;;;;;4944004;28;95277;-40
2021/11/14 01:46:56;;;;;;;4.35;2.92;;;16.20;73.40;;;;;;4945996;28;95768;-38
2021/11/14 01:49:28;;;;;;;6.10;2.70;;;16.20;73.50;;;;;;4946477;28;95825;-42
2021/11/14 01:51:59;;;;;;;4.82;3.13;;;16.20;73.40;;;;;;4945598;28;96114;-37
2021/11/14 01:54:30;;;;;;;4.07;3.00;;;16.20;73.40;;;;;;4944295;28;95348;-39
2021/11/14 01:57:02;;;;;;;3.42;2.40;;;16.20;73.50;;;;;;4948557;28;95307;-39
2021/11/14 01:59:35;;;;;;;8.23;2.97;;;16.20;73.50;;;;;;4947142;28;97031;-44
2021/11/14 02:02:05;;;;;;;3.97;2.40;;;16.20;73.00;;;;;;4945407;28;95851;-41
2021/11/14 02:04:37;;;;;;;5.93;3.17;;;16.20;73.60;;;;;;4945509;28;95794;-40
2021/11/14 02:07:09;;;;;;;4.60;2.90;;;16.20;73.80;;;;;;4932911;28;95912;-38
2021/11/14 02:09:39;;;;;;;;;;;16.20;73.70;;;;;;4945457;28;96154;-41
2021/11/14 02:12:10;;;;;;;5.32;3.55;;;16.20;73.80;;;;;;4948217;28;96115;-42
2021/11/14 02:14:41;;;;;;;4.47;3.22;;;16.20;73.90;;;;;;4947932;28;95764;-37
2021/11/14 02:17:12;;;;;;;4.45;3.03;;;16.20;73.90;;;;;;4944338;28;95949;-41
2021/11/14 02:19:47;;;;;;;4.23;3.13;;;16.10;73.80;;;;;;4944368;28;96087;-42
2021/11/14 02:22:18;;;;;;;3.42;2.83;;;16.20;74.20;;;;;;4945743;28;96107;-42
2021/11/14 02:24:48;;;;;;;7.15;3.13;;;16.30;74.60;;;;;;4945993;28;95607;-36
2021/11/14 02:27:18;;;;;;;5.50;3.13;;;16.40;74.90;;;;;;4944165;28;95833;-43
2021/11/14 02:29:50;;;;;;;6.25;4.00;;;16.40;75.30;;;;;;4944930;28;96881;-40
2021/11/14 02:32:21;;;;;;;6.60;4.07;;;16.50;75.40;;;;;;4944081;28;97711;-38
2021/11/14 02:35:13;;;;;;;4.82;3.10;;;16.50;75.60;;;;;;4942387;28;95826;-40
2021/11/14 02:37:44;;;;;;;4.40;3.00;;;16.60;75.80;;;;;;4943265;28;95986;-41
2021/11/14 02:40:15;;;;;;;5.47;3.80;;;16.60;75.90;;;;;;4944489;28;96033;-40
2021/11/14 02:42:48;;;;;;;7.90;4.40;;;16.60;76.20;;;;;;4943401;28;96841;-41
2021/11/14 02:45:24;;;;;;;6.28;3.55;;;16.70;76.30;;;;;;4946500;28;95276;-39
2021/11/14 02:47:59;;;;;;;5.05;3.25;;;16.70;76.40;;;;;;4973597;28;95852;-39
2021/11/14 02:50:31;;;;;;;5.05;3.40;;;16.70;76.50;;;;;;4945292;28;96179;-42
2021/11/14 02:53:01;;;;;;;;;;;16.70;76.50;;;;;;4943393;28;95376;-41
2021/11/14 02:55:33;;;;;;;4.85;4.03;;;16.80;76.60;;;;;;4946363;28;95829;-42
2021/11/14 02:58:06;;;;;;;5.72;3.97;;;16.80;76.70;;;;;;4947030;28;95921;-40
2021/11/14 03:00:46;;;;;;;4.55;3.22;;;16.80;76.70;;;;;;4944314;28;96111;-39
2021/11/14 03:03:17;;;;;;;6.65;3.80;;;16.80;76.80;;;;;;4943463;28;97927;-38
2021/11/14 03:05:58;;;;;;;5.53;3.83;;;16.80;76.70;;;;;;4939203;28;96036;-39
2021/11/14 03:08:28;;;;;;;7.05;3.85;;;16.80;76.50;;;;;;4937973;28;96256;-38
2021/11/14 03:10:59;;;;;;;10.15;4.28;;;16.80;76.50;;;;;;4944468;28;96107;-40
2021/11/14 03:13:31;;;;;;;;;;;16.80;76.40;;;;;;4944604;28;95774;-42
2021/11/14 03:16:07;;;;;;;5.78;3.05;;;16.80;76.40;;;;;;4945799;28;95924;-41
2021/11/14 03:18:38;;;;;;;5.30;3.67;;;16.80;76.40;;;;;;4958832;28;95932;-42
2021/11/14 03:21:10;;;;;;;5.35;3.60;;;16.80;76.30;;;;;;4944015;28;98386;-40
2021/11/14 03:23:41;;;;;;;11.57;4.80;;;16.80;76.20;;;;;;4948432;28;96149;-41
2021/11/14 03:26:12;;;;;;;4.60;3.72;;;16.80;76.10;;;;;;4947708;28;97987;-42
2021/11/14 03:28:44;;;;;;;;;;;16.80;76.20;;;;;;4949345;28;95596;-41
2021/11/14 03:31:15;;;;;;;4.80;3.45;;;16.80;76.20;;;;;;4964910;28;96030;-41
2021/11/14 03:33:47;;;;;;;6.65;4.20;;;16.80;76.10;;;;;;4944704;28;95826;-39
2021/11/14 03:36:19;;;;;;;;;;;16.80;76.10;;;;;;4954400;28;95711;-40
2021/11/14 03:38:53;;;;;;;7.90;4.05;;;16.80;76.00;;;;;;4949467;28;96791;-42
2021/11/14 03:41:31;;;;;;;10.82;4.65;;;16.80;75.90;;;;;;4946725;28;95894;-39
2021/11/14 03:44:03;;;;;;;6.10;3.90;;;16.80;75.80;;;;;;4948506;28;96088;-40
2021/11/14 03:46:33;;;;;;;;;;;16.80;75.80;;;;;;4948325;28;95794;-39
2021/11/14 03:49:04;;;;;;;5.22;3.83;;;16.80;75.60;;;;;;4948081;28;98231;-41
2021/11/14 03:51:34;;;;;;;10.18;4.55;;;16.80;75.60;;;;;;4949245;28;96400;-43
2021/11/14 03:54:05;;;;;;;6.63;3.90;;;16.80;75.60;;;;;;4950332;28;95795;-38
2021/11/14 03:56:37;;;;;;;5.80;4.53;;;16.80;75.60;;;;;;4950091;28;95229;-41
2021/11/14 03:59:09;;;;;;;6.70;4.63;;;16.90;75.60;;;;;;4945341;28;97250;-39
2021/11/14 04:01:41;;;;;;;6.75;4.82;;;16.80;75.50;;;;;;4945247;28;96693;-38
2021/11/14 04:04:12;;;;;;;7.88;4.65;;;16.90;75.60;;;;;;4946384;28;95322;-41
2021/11/14 04:06:42;;;;;;;9.35;4.47;;;16.90;75.40;;;;;;4931556;28;96364;-37
2021/11/14 04:09:12;;;;;;;13.73;4.70;;;16.90;75.40;;;;;;4942379;28;95569;-40
2021/11/14 04:11:43;;;;;;;6.70;4.25;;;16.90;75.50;;;;;;4946108;28;95881;-42
2021/11/14 04:14:14;;;;;;;7.30;4.38;;;16.90;75.50;;;;;;4948478;28;95768;-37
2021/11/14 04:16:45;;;;;;;8.23;4.90;;;16.90;75.50;;;;;;4947695;28;95797;-40
2021/11/14 04:19:17;;;;;;;7.22;4.25;;;17.00;75.50;;;;;;4947347;28;95442;-41
2021/11/14 04:21:47;;;;;;;;;;;17.00;75.40;;;;;;4948895;28;96461;-42
2021/11/14 04:24:17;;;;;;;6.50;5.20;;;17.00;75.40;;;;;;4979097;28;96632;-38
2021/11/14 04:26:48;;;;;;;15.25;11.00;;;17.10;75.40;;;;;;4948504;28;98039;-36
2021/11/14 04:29:19;;;;;;;17.02;10.32;;;17.00;75.30;;;;;;4948933;28;95391;-42
2021/11/14 04:31:50;;;;;;;15.05;10.30;;;17.00;75.20;;;;;;4946530;28;96663;-39
2021/11/14 04:34:22;;;;;;;28.63;20.48;;;17.00;75.20;;;;;;4947696;28;95795;-41
2021/11/14 04:36:54;;;;;;;22.23;17.15;;;17.00;75.10;;;;;;4951079;28;98457;-42
2021/11/14 04:39:25;;;;;;;27.90;19.33;;;17.10;75.10;;;;;;4948747;28;95297;-39
2021/11/14 04:41:57;;;;;;;30.13;19.30;;;17.10;75.20;;;;;;4962094;28;95975;-38
2021/11/14 04:44:26;;;;;;;25.23;18.88;;;17.10;75.20;;;;;;4945788;28;96010;-39
2021/11/14 04:46:56;;;;;;;25.83;19.13;;;17.10;75.70;;;;;;4961200;28;95756;-41
2021/11/14 04:49:27;;;;;;;25.45;19.40;;;17.10;75.10;;;;;;4945365;28;95742;-37
2021/11/14 04:51:57;;;;;;;26.98;19.27;;;17.10;74.90;;;;;;4947333;28;95915;-42
2021/11/14 04:54:27;;;;;;;27.17;18.75;;;17.10;74.90;;;;;;4947468;28;96124;-38
2021/11/14 04:56:59;;;;;;;25.63;17.92;;;17.10;74.80;;;;;;4945390;28;95913;-40
2021/11/14 04:59:30;;;;;;;24.00;17.73;;;17.10;74.80;;;;;;4946300;28;95808;-39
2021/11/14 05:02:00;;;;;;;24.95;16.98;;;17.10;74.60;;;;;;4947738;28;96394;-40
2021/11/14 05:04:32;;;;;;;23.85;17.42;;;17.10;74.70;;;;;;4946271;28;96167;-43
2021/11/14 05:07:04;;;;;;;22.33;17.35;;;17.10;74.60;;;;;;4928977;28;96151;-38
2021/11/14 05:09:36;;;;;;;23.23;17.10;;;17.10;74.50;;;;;;4942215;28;95810;-43
2021/11/14 05:12:08;;;;;;;22.30;17.23;;;17.10;74.40;;;;;;4947189;28;95973;-40
2021/11/14 05:14:40;;;;;;;23.40;17.08;;;17.10;74.40;;;;;;4943662;28;95344;-41
2021/11/14 05:17:10;;;;;;;;;;;17.20;74.40;;;;;;4944556;28;95739;-37
2021/11/14 05:19:42;;;;;;;20.73;15.40;;;17.10;74.30;;;;;;4948734;28;95627;-40
2021/11/14 05:22:12;;;;;;;20.23;15.80;;;17.10;72.10;;;;;;4945465;28;96113;-39
2021/11/14 05:24:42;;;;;;;23.73;18.10;;;17.10;74.30;;;;;;4946134;28;95777;-39
2021/11/14 05:27:13;;;;;;;24.30;17.40;;;17.10;74.20;;;;;;4947008;28;95522;-40
2021/11/14 05:29:44;;;;;;;32.22;19.73;;;17.10;74.10;;;;;;4947286;28;95674;-41
2021/11/14 05:32:16;;;;;;;38.65;25.20;;;17.10;74.20;;;;;;4947552;28;96007;-39
2021/11/14 05:34:47;;;;;;;48.97;32.88;;;17.10;74.20;;;;;;4950216;28;96155;-39
2021/11/14 05:37:18;;;;;;;66.30;41.50;;;17.20;74.30;;;;;;4949261;28;95579;-39
2021/11/14 05:39:49;;;;;;;82.45;49.67;;;17.10;74.30;;;;;;4944034;28;95797;-38
2021/11/14 05:42:20;;;;;;;80.07;49.60;;;17.10;74.30;;;;;;4945865;28;96546;-40
2021/11/14 05:44:52;;;;;;;85.72;52.03;;;17.20;74.50;;;;;;4945808;28;95476;-39
2021/11/14 05:47:22;;;;;;;94.95;57.85;;;17.20;74.40;;;;;;4948643;28;95655;-37
2021/11/14 05:49:52;;;;;;;91.18;53.65;;;17.20;74.50;;;;;;4948539;28;95406;-40
2021/11/14 05:52:23;;;;;;;102.28;56.83;;;17.20;74.60;;;;;;4946645;28;98348;-38
2021/11/14 05:54:53;;;;;;;94.65;55.00;;;17.20;74.60;;;;;;4945089;28;97649;-38
2021/11/14 05:57:26;;;;;;;104.50;54.83;;;17.20;74.60;;;;;;4944670;28;95406;-41
2021/11/14 06:00:04;;;;;;;90.85;54.10;;;17.20;74.70;;;;;;4945180;28;95858;-40
2021/11/14 06:07:49;;;;;;;85.57;52.78;;;17.20;74.70;;;;;;4950103;28;98667;-39
2021/11/14 06:10:21;;;;;;;77.05;51.08;;;17.20;74.60;;;;;;4945623;28;95917;-41
2021/11/14 06:12:53;;;;;;;73.88;47.80;;;17.20;74.60;;;;;;4958624;28;98547;-41
2021/11/14 06:15:25;;;;;;;72.05;44.83;;;17.20;74.60;;;;;;4945996;28;95828;-36
2021/11/14 06:17:57;;;;;;;73.82;46.00;;;17.20;74.60;;;;;;4946760;28;96122;-40
2021/11/14 06:20:28;;;;;;;68.25;43.50;;;17.20;74.60;;;;;;4945873;28;95890;-41
2021/11/14 06:22:58;;;;;;;68.65;43.13;;;17.30;74.80;;;;;;4945340;28;96751;-44
2021/11/14 06:25:29;;;;;;;66.65;44.25;;;17.20;74.80;;;;;;4945251;28;95854;-39
2021/11/14 06:28:00;;;;;;;70.20;42.63;;;17.30;74.90;;;;;;4944878;28;95819;-40
2021/11/14 06:30:32;;;;;;;73.10;44.63;;;17.30;75.10;;;;;;4943120;28;95578;-41
2021/11/14 06:33:03;;;;;;;63.35;38.15;;;17.30;75.10;;;;;;4941899;28;96714;-39
2021/11/14 06:35:34;;;;;;;;;;;17.30;75.10;;;;;;4945760;28;97404;-42
2021/11/14 06:38:04;;;;;;;58.17;37.28;;;17.30;75.30;;;;;;4946618;28;95815;-43
2021/11/14 06:40:35;;;;;;;61.07;38.13;;;17.30;75.30;;;;;;4941803;28;97304;-40
2021/11/14 06:43:07;;;;;;;65.50;38.42;;;17.30;75.30;;;;;;4943471;28;95958;-40
2021/11/14 06:45:37;;;;;;;64.03;39.95;;;17.30;75.50;;;;;;4943663;28;96158;-43
2021/11/14 06:48:07;;;;;;;61.70;39.47;;;17.30;75.50;;;;;;4944655;28;95738;-41
2021/11/14 06:50:37;;;;;;;60.92;36.90;;;17.30;75.50;;;;;;4942229;28;95979;-40
2021/11/14 06:53:07;;;;;;;59.33;37.75;;;17.30;75.50;;;;;;4943835;28;95847;-42
2021/11/14 06:55:39;;;;;;;68.82;38.33;;;17.30;75.50;;;;;;4945287;28;95311;-42
2021/11/14 06:58:10;;;;;;;56.40;36.72;;;17.30;75.50;;;;;;4949372;28;95752;-39
2021/11/14 07:00:43;;;;;;;54.22;34.25;;;17.30;76.10;;;;;;4948626;28;95922;-43
2021/11/14 07:03:22;;;;;;;52.72;34.50;;;17.30;75.60;;;;;;4945687;28;96489;-42
2021/11/14 07:05:53;;;;;;;56.17;33.05;;;17.30;75.60;;;;;;4938874;28;98604;-38
2021/11/14 07:08:23;;;;;;;49.78;32.50;;;17.30;75.60;;;;;;4936877;28;95489;-40
2021/11/14 07:10:54;;;;;;;54.72;32.50;;;17.30;75.60;;;;;;4947110;28;95837;-40
2021/11/14 07:13:26;;;;;;;51.42;30.95;;;17.30;75.70;;;;;;4944793;28;96779;-37
2021/11/14 07:15:59;;;;;;;49.10;30.80;;;17.30;75.70;;;;;;4946387;28;95785;-38
2021/11/14 07:18:30;;;;;;;48.28;31.58;;;17.30;75.70;;;;;;4946536;28;97526;-42
2021/11/14 07:21:01;;;;;;;52.75;31.17;;;17.30;73.60;;;;;;4947382;28;97703;-36
2021/11/14 07:23:33;;;;;;;50.30;30.05;;;17.30;75.70;;;;;;4948749;28;95952;-41
2021/11/14 07:26:04;;;;;;;42.85;27.42;;;17.30;75.70;;;;;;4947683;28;95745;-41
2021/11/14 07:28:35;;;;;;;44.05;28.73;;;17.30;75.60;;;;;;4949133;28;96403;-40
2021/11/14 07:31:06;;;;;;;39.42;26.50;;;17.30;75.50;;;;;;4947937;28;95743;-41
2021/11/14 07:33:38;;;;;;;39.40;26.48;;;17.20;75.50;;;;;;4947724;28;95915;-40
2021/11/14 07:36:09;;;;;;;39.67;25.45;;;17.20;75.60;;;;;;4946223;28;95790;-38
2021/11/14 07:38:50;;;;;;;48.05;27.35;;;17.30;75.60;;;;;;4947011;28;96042;-42
2021/11/14 07:41:22;;;;;;;38.95;25.50;;;17.20;75.40;;;;;;4946471;28;95554;-42
2021/11/14 07:43:53;;;;;;;41.67;25.48;;;17.20;73.20;;;;;;4946813;28;98773;-42
2021/11/14 07:46:23;;;;;;;42.30;25.40;;;17.20;75.40;;;;;;4948245;28;95928;-37
2021/11/14 07:48:54;;;;;;;37.30;23.58;;;17.20;75.30;;;;;;4949121;28;95936;-42
2021/11/14 07:51:28;;;;;;;41.33;24.20;;;17.20;75.30;;;;;;4948801;28;95316;-40
2021/11/14 07:54:00;;;;;;;37.75;24.27;;;17.20;75.30;;;;;;4946639;28;95936;-40
2021/11/14 07:56:33;;;;;;;33.28;21.27;;;17.10;75.20;;;;;;4949172;28;95801;-41
2021/11/14 07:59:05;;;;;;;30.05;21.50;;;17.10;75.20;;;;;;4949110;28;95665;-44
2021/11/14 08:01:37;;;;;;;35.95;23.15;;;17.10;75.20;;;;;;4948484;28;95435;-41
2021/11/14 08:04:09;;;;;;;33.20;19.90;;;17.10;75.20;;;;;;4947781;28;96010;-37
2021/11/14 08:06:44;;;;;;;32.15;21.35;;;17.10;75.20;;;;;;4929410;28;95987;-43
2021/11/14 08:09:15;;;;;;;33.30;20.70;;;17.10;75.20;;;;;;4940891;28;96028;-40
2021/11/14 08:11:46;;;;;;;30.83;19.55;;;17.10;75.20;;;;;;4957367;28;95761;-41
2021/11/14 08:14:18;;;;;;;35.45;21.00;;;17.10;75.30;;;;;;4944834;28;96150;-40
2021/11/14 08:16:48;;;;;;;29.27;19.85;;;17.00;75.20;;;;;;4958470;28;96051;-38
2021/11/14 08:19:18;;;;;;;34.03;21.70;;;17.10;75.40;;;;;;4943314;28;95846;-41
2021/11/14 08:21:48;;;;;;;41.63;21.48;;;17.00;75.40;;;;;;4944170;28;96070;-39
2021/11/14 08:24:18;;;;;;;33.42;21.48;;;17.00;75.40;;;;;;4946141;28;95965;-40
2021/11/14 08:26:48;;;;;;;34.10;19.55;;;17.00;75.60;;;;;;4945941;28;95927;-38
2021/11/14 08:29:19;;;;;;;30.77;18.35;;;16.90;75.50;;;;;;4947129;28;95857;-40
2021/11/14 08:31:50;;;;;;;31.50;18.88;;;16.90;75.50;;;;;;4946529;28;97113;-42
2021/11/14 08:34:21;;;;;;;29.85;18.10;;;16.90;75.50;;;;;;4948969;28;96528;-39
2021/11/14 08:36:52;;;;;;;27.02;17.40;;;16.90;75.50;;;;;;4946671;28;96075;-39
2021/11/14 08:39:24;;;;;;;24.27;16.00;;;16.90;75.40;;;;;;4945895;28;95928;-38
2021/11/14 08:41:56;;;;;;;29.83;17.70;;;16.90;75.50;;;;;;4945262;28;95812;-40
2021/11/14 08:44:28;;;;;;;27.17;16.58;;;16.90;75.40;;;;;;4946061;28;96703;-37
2021/11/14 08:46:58;;;;;;;24.45;14.90;;;16.90;75.40;;;;;;4945391;28;96234;-40
2021/11/14 08:49:28;;;;;;;28.73;15.50;;;16.90;75.20;;;;;;4948682;28;95568;-40
2021/11/14 08:51:59;;;;;;;23.88;14.50;;;16.90;75.30;;;;;;4949443;28;95299;-42
2021/11/14 08:54:31;;;;;;;22.40;14.10;;;16.90;75.30;;;;;;4948460;28;96088;-39
2021/11/14 08:57:04;;;;;;;20.58;13.95;;;16.80;75.30;;;;;;4947856;28;95869;-39
2021/11/14 08:59:35;;;;;;;20.92;13.13;;;16.80;75.00;;;;;;4960619;28;95835;-42
2021/11/14 09:02:07;;;;;;;22.67;14.63;;;16.80;74.90;;;;;;4947147;28;95663;-40
2021/11/14 09:04:38;;;;;;;20.50;12.50;;;16.80;74.80;;;;;;4947471;28;97813;-41
2021/11/14 09:07:11;;;;;;;22.75;12.15;;;16.80;74.90;;;;;;4936640;28;98848;-43
2021/11/14 09:09:41;;;;;;;18.52;11.23;;;16.80;75.00;;;;;;4946472;28;95798;-39
2021/11/14 09:12:12;;;;;;;19.50;12.10;;;16.80;75.00;;;;;;4946612;28;96308;-43
2021/11/14 09:14:45;;;;;;;18.50;10.50;;;16.70;74.80;;;;;;4945709;28;95805;-42
2021/11/14 09:17:20;;;;;;;16.50;10.25;;;16.70;75.00;;;;;;4945914;28;95456;-39
2021/11/14 09:19:51;;;;;;;15.93;10.25;;;16.70;72.80;;;;;;4943789;28;95638;-41
2021/11/14 09:22:23;;;;;;;14.50;8.93;;;16.70;75.00;;;;;;4943392;28;95667;-39
2021/11/14 09:24:53;;;;;;;17.73;10.55;;;16.70;74.90;;;;;;4945855;28;96614;-37
2021/11/14 09:27:24;;;;;;;15.52;9.80;;;16.70;74.90;;;;;;4945422;28;97763;-43
2021/11/14 09:29:56;;;;;;;16.65;9.02;;;16.70;74.80;;;;;;4945689;28;95886;-39
2021/11/14 09:32:29;;;;;;;20.55;9.38;;;16.70;74.50;;;;;;4945287;28;96099;-41
2021/11/14 09:35:00;;;;;;;13.77;8.95;;;16.70;74.40;;;;;;4945374;28;96109;-43
2021/11/14 09:37:31;;;;;;;10.90;7.22;;;16.70;74.20;;;;;;4947159;28;96010;-39
2021/11/14 09:40:02;;;;;;;14.50;6.85;;;16.80;74.00;;;;;;4947707;28;95838;-37
2021/11/14 09:42:34;;;;;;;10.20;5.65;;;16.80;73.80;;;;;;4946584;28;96295;-43
2021/11/14 09:45:06;;;;;;;9.18;5.78;;;16.80;73.60;;;;;;4944768;28;95964;-40
2021/11/14 09:47:40;;;;;;;12.00;6.15;;;16.80;73.30;;;;;;4946479;28;95948;-42
2021/11/14 09:50:11;;;;;;;7.97;5.10;;;16.90;73.20;;;;;;4944401;28;96019;-43
2021/11/14 09:52:43;;;;;;;8.25;4.72;;;16.90;73.20;;;;;;4945869;28;95763;-42
2021/11/14 09:55:15;;;;;;;7.45;4.97;;;17.00;71.10;;;;;;4946827;28;96576;-42
2021/11/14 09:57:48;;;;;;;6.50;4.57;;;17.00;73.00;;;;;;4943488;28;96426;-38
2021/11/14 10:00:25;;;;;;;9.25;5.00;;;17.00;72.90;;;;;;4942498;28;95660;-36
2021/11/14 10:02:56;;;;;;;8.80;5.18;;;17.00;73.00;;;;;;4944808;28;95744;-39
2021/11/14 10:05:28;;;;;;;7.03;4.55;;;17.00;72.90;;;;;;4938717;28;96731;-43
2021/11/14 10:08:03;;;;;;;7.40;4.30;;;16.90;72.80;;;;;;4931526;28;96139;-39
2021/11/14 10:10:46;;;;;;;7.82;4.43;;;16.90;72.90;;;;;;4944531;28;95823;-40
2021/11/14 10:13:22;;;;;;;9.73;4.30;;;16.90;72.80;;;;;;4945968;28;95764;-38
2021/11/14 10:16:18;;;;;;;8.55;3.88;;;16.90;72.80;;;;;;4942722;28;96004;-39
2021/11/14 10:18:58;;;;;;;8.77;4.20;;;16.90;73.40;;;;;;4944155;28;95364;-39
2021/11/14 10:21:31;;;;;;;8.05;4.28;;;16.80;72.70;;;;;;4944601;28;95987;-37
2021/11/14 10:24:04;;;;;;;5.65;3.88;;;16.80;72.70;;;;;;4946002;28;96167;-40
2021/11/14 10:26:36;;;;;;;8.15;4.30;;;16.80;72.60;;;;;;4943095;28;96683;-41
2021/11/14 10:29:11;;;;;;;7.20;4.78;;;16.80;72.60;;;;;;4943528;28;95929;-37
2021/11/14 10:31:44;;;;;;;6.80;4.05;;;16.80;72.60;;;;;;4944404;28;96250;-41
2021/11/14 10:34:19;;;;;;;6.45;3.95;;;16.80;72.60;;;;;;4948165;28;95796;-40
2021/11/14 10:36:58;;;;;;;9.18;4.45;;;16.70;72.50;;;;;;4947842;28;96592;-40
2021/11/14 10:39:41;;;;;;;7.47;4.22;;;16.70;72.50;;;;;;4947788;28;96847;-38
2021/11/14 10:42:18;;;;;;;5.60;3.28;;;16.70;72.50;;;;;;4950417;28;95948;-35
2021/11/14 10:44:57;;;;;;;5.00;3.78;;;16.70;72.40;;;;;;4948601;28;95885;-37
2021/11/14 10:47:29;;;;;;;8.35;4.18;;;16.70;70.40;;;;;;4947814;28;96374;-40
2021/11/14 10:50:07;;;;;;;5.57;3.28;;;16.70;72.50;;;;;;4948589;28;95779;-41
2021/11/14 10:52:37;;;;;;;14.35;4.43;;;16.60;72.30;;;;;;4950523;28;97223;-40
2021/11/14 10:55:10;;;;;;;7.53;4.22;;;16.70;72.50;;;;;;4963883;28;96265;-40
2021/11/14 10:57:42;;;;;;;6.05;3.60;;;16.60;70.30;;;;;;4978535;28;98616;-41
2021/11/14 11:00:16;;;;;;;5.22;4.10;;;16.60;72.40;;;;;;4948587;28;95328;-40
2021/11/14 11:02:49;;;;;;;6.00;3.75;;;16.60;72.30;;;;;;4949558;28;95874;-43
2021/11/14 11:05:30;;;;;;;7.57;4.07;;;16.50;72.30;;;;;;4943533;28;99478;-40
2021/11/14 11:08:22;;;;;;;7.47;3.60;;;16.60;72.30;;;;;;4934830;28;96273;-40
2021/11/14 11:10:58;;;;;;;6.07;3.72;;;16.60;72.40;;;;;;4949404;28;95806;-40
2021/11/14 11:13:45;;;;;;;10.32;4.00;;;16.50;72.30;;;;;;4948862;28;95723;-40
2021/11/14 11:16:27;;;;;;;8.00;4.10;;;16.50;72.30;;;;;;4946613;28;95777;-41
2021/11/14 11:19:06;;;;;;;6.00;3.80;;;16.50;72.20;;;;;;4946153;28;96839;-38
2021/11/14 11:21:44;;;;;;;4.97;3.30;;;16.50;72.20;;;;;;4946042;28;95809;-41
2021/11/14 11:24:25;;;;;;;5.32;3.38;;;16.50;72.20;;;;;;4947053;28;97120;-41
2021/11/14 11:27:01;;;;;;;6.00;3.83;;;16.50;72.20;;;;;;4947342;28;95663;-40
2021/11/14 11:29:37;;;;;;;4.88;3.42;;;16.50;72.20;;;;;;4947165;28;96006;-41
2021/11/14 11:32:12;;;;;;;6.38;3.83;;;16.50;72.20;;;;;;4946554;28;95772;-39
2021/11/14 11:34:46;;;;;;;5.80;3.33;;;16.40;72.10;;;;;;4943291;28;95305;-40
2021/11/14 11:37:17;;;;;;;7.65;3.22;;;16.40;72.10;;;;;;4947931;28;97110;-41
2021/11/14 11:39:48;;;;;;;6.70;3.58;;;16.40;72.10;;;;;;4945757;28;95984;-41
2021/11/14 11:42:20;;;;;;;6.88;3.92;;;16.40;72.00;;;;;;4946127;28;95752;-40
2021/11/14 11:44:57;;;;;;;5.50;3.50;;;16.40;72.10;;;;;;4948514;28;95793;-40
2021/11/14 11:47:29;;;;;;;5.75;3.35;;;16.40;72.00;;;;;;4950873;28;95398;-39
2021/11/14 11:49:59;;;;;;;6.03;3.78;;;16.40;70.00;;;;;;4948450;28;96480;-40
2021/11/14 11:52:39;;;;;;;5.30;2.95;;;16.40;72.10;;;;;;4947262;28;96124;-41
2021/11/14 11:55:24;;;;;;;5.75;2.85;;;16.40;72.00;;;;;;4949869;28;95613;-40
2021/11/14 11:58:21;;;;;;;4.68;3.05;;;16.30;71.90;;;;;;4949643;28;95276;-38
2021/11/14 12:01:00;;;;;;;5.32;3.45;;;16.30;72.00;;;;;;4963016;28;96471;-40
2021/11/14 12:03:38;;;;;;;4.47;2.80;;;16.30;71.90;;;;;;4949459;28;95592;-41
2021/11/14 12:06:21;;;;;;;5.78;3.55;;;16.30;71.90;;;;;;4937791;28;96235;-38
2021/11/14 12:08:57;;;;;;;4.00;2.55;;;16.30;71.90;;;;;;4942307;28;96009;-39
2021/11/14 12:11:40;;;;;;;5.20;3.35;;;16.30;71.80;;;;;;4949013;28;96671;-41
2021/11/14 12:14:27;;;;;;;6.28;3.22;;;16.30;71.80;;;;;;4949441;28;95972;-38
2021/11/14 12:17:01;;;;;;;4.63;3.05;;;16.30;71.80;;;;;;4947964;28;95699;-37
2021/11/14 12:19:41;;;;;;;5.93;3.25;;;16.30;71.70;;;;;;4944443;28;95275;-35
2021/11/14 12:22:19;;;;;;;5.72;3.08;;;16.20;71.70;;;;;;4949241;28;98809;-39
2021/11/14 12:24:53;;;;;;;4.20;2.80;;;16.30;71.80;;;;;;4946641;28;95946;-41
2021/11/14 12:27:36;;;;;;;5.18;3.53;;;16.20;71.60;;;;;;4947581;28;95323;-41
2021/11/14 12:30:13;;;;;;;5.00;2.85;;;16.20;71.70;;;;;;4947080;28;95602;-39
2021/11/14 12:32:47;;;;;;;5.35;3.08;;;16.20;71.70;;;;;;4949055;28;96594;-37
2021/11/14 12:35:29;;;;;;;4.65;3.15;;;16.20;71.70;;;;;;4954361;28;95576;-41
2021/11/14 12:38:05;;;;;;;5.85;2.83;;;16.20;71.60;;;;;;4948763;28;96036;-37
2021/11/14 12:40:45;;;;;;;4.88;3.13;;;16.20;71.70;;;;;;4947947;28;95635;-40
2021/11/14 12:43:19;;;;;;;6.70;3.67;;;16.20;71.70;;;;;;4947137;28;96768;-38
2021/11/14 12:45:55;;;;;;;3.70;2.75;;;16.10;71.60;;;;;;4949288;28;96686;-39
2021/11/14 12:48:31;;;;;;;5.43;3.20;;;16.10;71.60;;;;;;4956790;28;96021;-40
2021/11/14 12:51:24;;;;;;;4.75;3.03;;;16.10;71.70;;;;;;4978092;28;95686;-38
2021/11/14 12:53:58;;;;;;;4.75;2.65;;;16.10;71.60;;;;;;4946982;28;96880;-37
2021/11/14 12:56:43;;;;;;;5.50;2.97;;;16.10;71.20;;;;;;4944936;28;95268;-36
2021/11/14 12:59:23;;;;;;;5.43;2.75;;;16.10;71.60;;;;;;4944399;28;95860;-37
2021/11/14 13:02:15;;;;;;;3.80;2.60;;;16.10;71.70;;;;;;4945448;28;95426;-38
2021/11/14 13:04:46;;;;;;;4.60;2.80;;;16.10;71.70;;;;;;4943963;28;96474;-39
2021/11/14 13:07:36;;;;;;;4.23;2.63;;;16.10;72.20;;;;;;4933687;28;96008;-37
2021/11/14 13:10:17;;;;;;;3.95;2.65;;;16.10;71.70;;;;;;4944958;28;95864;-38
2021/11/14 13:12:51;;;;;;;4.85;2.58;;;16.00;71.60;;;;;;4936302;28;97814;-40
2021/11/14 13:15:22;;;;;;;4.95;2.80;;;16.00;71.60;;;;;;4944848;28;97271;-40